sensor_id;sensor_type;location;lat;lon;timestamp;P1;durP1;ratioP1;P2;durP2;ratioP2
68821;SDS011;55834;50.870;4.606;2023-08-06T00:01:11;10.45;;;1.15;;
68821;SDS011;55834;50.870;4.606;2023-08-06T00:03:37;2.25;;;0.50;;
68821;SDS011;55834;50.870;4.606;2023-08-06T00:06:02;1.15;;;0.68;;
68821;SDS011;55834;50.870;4.606;2023-08-06T00:08:29;3.03;;;0.95;;
68821;SDS011;55834;50.870;4.606;2023-08-06T00:10:55;2.27;;;0.80;;
68821;SDS011;55834;50.870;4.606;2023-08-06T00:13:20;2.07;;;0.50;;
68821;SDS011;55834;50.870;4.606;2023-08-06T00:15:45;1.83;;;1.08;;
68821;SDS011;55834;50.870;4.606;2023-08-06T00:18:11;1.02;;;0.70;;
68821;SDS011;55834;50.870;4.606;2023-08-06T00:20:38;0.65;;;0.65;;
68821;SDS011;55834;50.870;4.606;2023-08-06T00:23:04;1.38;;;0.70;;
68821;SDS011;55834;50.870;4.606;2023-08-06T00:25:29;0.73;;;0.60;;
68821;SDS011;55834;50.870;4.606;2023-08-06T00:27:55;0.77;;;0.47;;
68821;SDS011;55834;50.870;4.606;2023-08-06T00:30:21;3.08;;;1.00;;
68821;SDS011;55834;50.870;4.606;2023-08-06T00:32:46;1.20;;;0.60;;
68821;SDS011;55834;50.870;4.606;2023-08-06T00:35:12;3.40;;;1.05;;
68821;SDS011;55834;50.870;4.606;2023-08-06T00:37:38;2.25;;;1.10;;
68821;SDS011;55834;50.870;4.606;2023-08-06T00:40:04;1.40;;;0.70;;
68821;SDS011;55834;50.870;4.606;2023-08-06T00:42:30;1.10;;;0.70;;
68821;SDS011;55834;50.870;4.606;2023-08-06T00:44:56;1.63;;;0.67;;
68821;SDS011;55834;50.870;4.606;2023-08-06T00:47:21;0.95;;;0.88;;
68821;SDS011;55834;50.870;4.606;2023-08-06T00:49:47;1.73;;;1.15;;
68821;SDS011;55834;50.870;4.606;2023-08-06T00:52:12;1.30;;;0.50;;
68821;SDS011;55834;50.870;4.606;2023-08-06T00:54:39;0.93;;;0.93;;
68821;SDS011;55834;50.870;4.606;2023-08-06T00:57:04;2.90;;;0.65;;
68821;SDS011;55834;50.870;4.606;2023-08-06T00:59:32;1.15;;;0.90;;
68821;SDS011;55834;50.870;4.606;2023-08-06T01:01:57;2.42;;;0.70;;
68821;SDS011;55834;50.870;4.606;2023-08-06T01:04:23;1.77;;;0.80;;
68821;SDS011;55834;50.870;4.606;2023-08-06T01:06:52;1.15;;;1.05;;
68821;SDS011;55834;50.870;4.606;2023-08-06T01:09:41;2.15;;;0.98;;
68821;SDS011;55834;50.870;4.606;2023-08-06T01:12:25;1.05;;;0.95;;
68821;SDS011;55834;50.870;4.606;2023-08-06T01:17:32;3.33;;;1.20;;
68821;SDS011;55834;50.870;4.606;2023-08-06T01:19:59;1.00;;;0.90;;
68821;SDS011;55834;50.870;4.606;2023-08-06T01:22:24;2.92;;;1.58;;
68821;SDS011;55834;50.870;4.606;2023-08-06T01:24:50;1.27;;;1.17;;
68821;SDS011;55834;50.870;4.606;2023-08-06T01:32:27;1.90;;;1.13;;
68821;SDS011;55834;50.870;4.606;2023-08-06T01:34:56;1.30;;;1.17;;
68821;SDS011;55834;50.870;4.606;2023-08-06T01:37:25;2.30;;;1.35;;
68821;SDS011;55834;50.870;4.606;2023-08-06T01:39:51;1.50;;;1.40;;
68821;SDS011;55834;50.870;4.606;2023-08-06T01:42:16;1.60;;;1.50;;
68821;SDS011;55834;50.870;4.606;2023-08-06T01:44:42;2.57;;;1.70;;
68821;SDS011;55834;50.870;4.606;2023-08-06T01:47:07;4.50;;;2.28;;
68821;SDS011;55834;50.870;4.606;2023-08-06T01:49:33;3.72;;;2.88;;
68821;SDS011;55834;50.870;4.606;2023-08-06T01:51:58;3.63;;;2.30;;
68821;SDS011;55834;50.870;4.606;2023-08-06T01:54:23;5.90;;;2.57;;
68821;SDS011;55834;50.870;4.606;2023-08-06T01:56:49;2.30;;;2.03;;
68821;SDS011;55834;50.870;4.606;2023-08-06T01:59:14;1.87;;;1.70;;
68821;SDS011;55834;50.870;4.606;2023-08-06T02:01:39;5.73;;;2.43;;
68821;SDS011;55834;50.870;4.606;2023-08-06T02:04:05;6.20;;;2.20;;
68821;SDS011;55834;50.870;4.606;2023-08-06T02:06:30;3.05;;;2.40;;
68821;SDS011;55834;50.870;4.606;2023-08-06T02:08:55;2.50;;;2.30;;
68821;SDS011;55834;50.870;4.606;2023-08-06T02:11:21;2.90;;;2.70;;
68821;SDS011;55834;50.870;4.606;2023-08-06T02:13:46;4.05;;;2.25;;
68821;SDS011;55834;50.870;4.606;2023-08-06T02:16:12;3.47;;;2.20;;
68821;SDS011;55834;50.870;4.606;2023-08-06T02:18:37;6.70;;;3.63;;
68821;SDS011;55834;50.870;4.606;2023-08-06T02:21:02;3.35;;;2.20;;
68821;SDS011;55834;50.870;4.606;2023-08-06T02:23:28;4.00;;;2.80;;
68821;SDS011;55834;50.870;4.606;2023-08-06T02:28:25;6.60;;;3.03;;
68821;SDS011;55834;50.870;4.606;2023-08-06T02:30:51;2.95;;;2.45;;
68821;SDS011;55834;50.870;4.606;2023-08-06T02:33:17;2.88;;;2.13;;
68821;SDS011;55834;50.870;4.606;2023-08-06T02:35:42;1.77;;;1.67;;
68821;SDS011;55834;50.870;4.606;2023-08-06T02:38:07;2.57;;;2.37;;
68821;SDS011;55834;50.870;4.606;2023-08-06T02:40:33;4.53;;;2.23;;
68821;SDS011;55834;50.870;4.606;2023-08-06T02:42:58;4.73;;;2.13;;
68821;SDS011;55834;50.870;4.606;2023-08-06T02:45:23;5.93;;;2.73;;
68821;SDS011;55834;50.870;4.606;2023-08-06T02:47:49;3.45;;;2.22;;
68821;SDS011;55834;50.870;4.606;2023-08-06T02:50:14;3.10;;;1.57;;
68821;SDS011;55834;50.870;4.606;2023-08-06T02:52:40;3.22;;;2.13;;
68821;SDS011;55834;50.870;4.606;2023-08-06T02:55:06;2.42;;;2.22;;
68821;SDS011;55834;50.870;4.606;2023-08-06T02:57:32;3.92;;;2.38;;
68821;SDS011;55834;50.870;4.606;2023-08-06T02:59:57;2.50;;;2.30;;
68821;SDS011;55834;50.870;4.606;2023-08-06T03:02:23;3.17;;;1.90;;
68821;SDS011;55834;50.870;4.606;2023-08-06T03:04:48;3.83;;;2.20;;
68821;SDS011;55834;50.870;4.606;2023-08-06T03:07:13;2.47;;;2.00;;
68821;SDS011;55834;50.870;4.606;2023-08-06T03:09:39;2.83;;;2.20;;
68821;SDS011;55834;50.870;4.606;2023-08-06T03:12:04;4.17;;;1.80;;
68821;SDS011;55834;50.870;4.606;2023-08-06T03:14:30;1.50;;;1.40;;
68821;SDS011;55834;50.870;4.606;2023-08-06T03:16:55;4.60;;;2.20;;
68821;SDS011;55834;50.870;4.606;2023-08-06T03:19:21;3.63;;;1.57;;
68821;SDS011;55834;50.870;4.606;2023-08-06T03:21:46;5.27;;;2.17;;
68821;SDS011;55834;50.870;4.606;2023-08-06T03:24:13;3.35;;;2.10;;
68821;SDS011;55834;50.870;4.606;2023-08-06T03:26:38;4.47;;;2.47;;
68821;SDS011;55834;50.870;4.606;2023-08-06T03:29:04;6.20;;;3.23;;
68821;SDS011;55834;50.870;4.606;2023-08-06T03:31:29;4.45;;;2.88;;
68821;SDS011;55834;50.870;4.606;2023-08-06T03:33:55;7.13;;;2.63;;
68821;SDS011;55834;50.870;4.606;2023-08-06T03:36:20;2.87;;;2.60;;
68821;SDS011;55834;50.870;4.606;2023-08-06T03:38:46;7.30;;;3.53;;
68821;SDS011;55834;50.870;4.606;2023-08-06T03:41:11;6.07;;;3.00;;
68821;SDS011;55834;50.870;4.606;2023-08-06T03:43:36;5.47;;;3.30;;
68821;SDS011;55834;50.870;4.606;2023-08-06T03:46:02;6.27;;;3.87;;
68821;SDS011;55834;50.870;4.606;2023-08-06T03:48:27;7.43;;;4.63;;
68821;SDS011;55834;50.870;4.606;2023-08-06T03:50:52;11.05;;;5.70;;
68821;SDS011;55834;50.870;4.606;2023-08-06T03:53:18;7.97;;;5.65;;
68821;SDS011;55834;50.870;4.606;2023-08-06T03:55:43;8.40;;;5.60;;
68821;SDS011;55834;50.870;4.606;2023-08-06T03:58:09;9.90;;;5.23;;
68821;SDS011;55834;50.870;4.606;2023-08-06T04:00:34;8.67;;;5.77;;
68821;SDS011;55834;50.870;4.606;2023-08-06T04:02:59;9.53;;;4.67;;
68821;SDS011;55834;50.870;4.606;2023-08-06T04:05:25;12.18;;;6.57;;
68821;SDS011;55834;50.870;4.606;2023-08-06T04:07:50;10.80;;;7.13;;
68821;SDS011;55834;50.870;4.606;2023-08-06T04:10:18;12.97;;;7.07;;
68821;SDS011;55834;50.870;4.606;2023-08-06T04:12:44;14.35;;;7.35;;
68821;SDS011;55834;50.870;4.606;2023-08-06T04:15:09;13.77;;;7.87;;
68821;SDS011;55834;50.870;4.606;2023-08-06T04:17:35;10.38;;;6.60;;
68821;SDS011;55834;50.870;4.606;2023-08-06T04:20:00;8.85;;;6.00;;
68821;SDS011;55834;50.870;4.606;2023-08-06T04:22:26;8.23;;;5.88;;
68821;SDS011;55834;50.870;4.606;2023-08-06T04:24:52;10.18;;;5.38;;
68821;SDS011;55834;50.870;4.606;2023-08-06T04:27:18;10.98;;;6.00;;
68821;SDS011;55834;50.870;4.606;2023-08-06T04:29:44;4.47;;;3.65;;
68821;SDS011;55834;50.870;4.606;2023-08-06T04:32:10;2.05;;;1.85;;
68821;SDS011;55834;50.870;4.606;2023-08-06T04:34:36;3.30;;;1.75;;
68821;SDS011;55834;50.870;4.606;2023-08-06T04:37:02;1.88;;;1.25;;
68821;SDS011;55834;50.870;4.606;2023-08-06T04:39:29;0.57;;;0.57;;
68821;SDS011;55834;50.870;4.606;2023-08-06T04:41:55;0.60;;;0.60;;
68821;SDS011;55834;50.870;4.606;2023-08-06T04:44:22;0.50;;;0.40;;
68821;SDS011;55834;50.870;4.606;2023-08-06T04:46:48;0.85;;;0.50;;
68821;SDS011;55834;50.870;4.606;2023-08-06T04:49:14;1.25;;;0.55;;
68821;SDS011;55834;50.870;4.606;2023-08-06T04:51:39;1.65;;;0.32;;
68821;SDS011;55834;50.870;4.606;2023-08-06T04:54:04;1.03;;;0.70;;
68821;SDS011;55834;50.870;4.606;2023-08-06T04:56:30;2.38;;;1.10;;
68821;SDS011;55834;50.870;4.606;2023-08-06T04:58:55;2.43;;;1.33;;
68821;SDS011;55834;50.870;4.606;2023-08-06T05:01:20;3.83;;;1.40;;
68821;SDS011;55834;50.870;4.606;2023-08-06T05:03:47;3.95;;;1.60;;
68821;SDS011;55834;50.870;4.606;2023-08-06T05:06:12;3.22;;;1.92;;
68821;SDS011;55834;50.870;4.606;2023-08-06T05:08:37;3.17;;;2.00;;
68821;SDS011;55834;50.870;4.606;2023-08-06T05:11:03;3.50;;;2.50;;
68821;SDS011;55834;50.870;4.606;2023-08-06T05:13:28;3.17;;;2.20;;
68821;SDS011;55834;50.870;4.606;2023-08-06T05:15:54;3.40;;;2.28;;
68821;SDS011;55834;50.870;4.606;2023-08-06T05:18:20;3.90;;;2.42;;
68821;SDS011;55834;50.870;4.606;2023-08-06T05:20:45;3.47;;;2.38;;
68821;SDS011;55834;50.870;4.606;2023-08-06T05:23:11;4.70;;;2.45;;
68821;SDS011;55834;50.870;4.606;2023-08-06T05:25:37;6.32;;;3.03;;
68821;SDS011;55834;50.870;4.606;2023-08-06T05:28:03;2.38;;;1.83;;
68821;SDS011;55834;50.870;4.606;2023-08-06T05:30:30;3.15;;;2.42;;
68821;SDS011;55834;50.870;4.606;2023-08-06T05:32:55;4.03;;;2.60;;
68821;SDS011;55834;50.870;4.606;2023-08-06T05:35:21;4.20;;;1.77;;
68821;SDS011;55834;50.870;4.606;2023-08-06T05:37:47;2.13;;;1.90;;
68821;SDS011;55834;50.870;4.606;2023-08-06T05:40:13;3.97;;;2.38;;
68821;SDS011;55834;50.870;4.606;2023-08-06T05:42:39;3.33;;;1.75;;
68821;SDS011;55834;50.870;4.606;2023-08-06T05:45:05;4.78;;;2.55;;
68821;SDS011;55834;50.870;4.606;2023-08-06T05:47:32;3.90;;;1.63;;
68821;SDS011;55834;50.870;4.606;2023-08-06T05:49:57;1.93;;;1.40;;
68821;SDS011;55834;50.870;4.606;2023-08-06T05:52:22;3.67;;;2.22;;
68821;SDS011;55834;50.870;4.606;2023-08-06T05:54:48;5.77;;;2.03;;
68821;SDS011;55834;50.870;4.606;2023-08-06T05:57:13;2.95;;;1.35;;
68821;SDS011;55834;50.870;4.606;2023-08-06T05:59:40;3.80;;;1.45;;
68821;SDS011;55834;50.870;4.606;2023-08-06T06:02:05;2.42;;;2.20;;
68821;SDS011;55834;50.870;4.606;2023-08-06T06:04:31;2.43;;;1.37;;
68821;SDS011;55834;50.870;4.606;2023-08-06T06:06:56;3.23;;;1.97;;
68821;SDS011;55834;50.870;4.606;2023-08-06T06:09:21;3.37;;;2.60;;
68821;SDS011;55834;50.870;4.606;2023-08-06T06:11:47;3.45;;;1.58;;
68821;SDS011;55834;50.870;4.606;2023-08-06T06:14:14;3.92;;;1.85;;
68821;SDS011;55834;50.870;4.606;2023-08-06T06:16:40;5.00;;;1.97;;
68821;SDS011;55834;50.870;4.606;2023-08-06T06:19:05;6.33;;;1.70;;
68821;SDS011;55834;50.870;4.606;2023-08-06T06:21:30;6.65;;;2.78;;
68821;SDS011;55834;50.870;4.606;2023-08-06T06:23:56;6.53;;;1.67;;
68821;SDS011;55834;50.870;4.606;2023-08-06T06:26:21;8.23;;;2.00;;
68821;SDS011;55834;50.870;4.606;2023-08-06T06:28:47;9.10;;;3.25;;
68821;SDS011;55834;50.870;4.606;2023-08-06T06:31:12;2.50;;;1.37;;
68821;SDS011;55834;50.870;4.606;2023-08-06T06:33:38;3.10;;;2.13;;
68821;SDS011;55834;50.870;4.606;2023-08-06T06:36:03;6.70;;;1.80;;
68821;SDS011;55834;50.870;4.606;2023-08-06T06:38:29;5.63;;;1.92;;
68821;SDS011;55834;50.870;4.606;2023-08-06T06:40:57;4.82;;;2.00;;
68821;SDS011;55834;50.870;4.606;2023-08-06T06:43:23;4.97;;;2.30;;
68821;SDS011;55834;50.870;4.606;2023-08-06T06:45:52;7.28;;;2.58;;
68821;SDS011;55834;50.870;4.606;2023-08-06T06:48:18;7.43;;;4.15;;
68821;SDS011;55834;50.870;4.606;2023-08-06T06:50:46;4.95;;;2.10;;
68821;SDS011;55834;50.870;4.606;2023-08-06T06:53:12;4.10;;;2.20;;
68821;SDS011;55834;50.870;4.606;2023-08-06T06:55:38;6.10;;;2.27;;
68821;SDS011;55834;50.870;4.606;2023-08-06T06:58:03;5.37;;;2.07;;
68821;SDS011;55834;50.870;4.606;2023-08-06T07:00:28;13.77;;;12.43;;
68821;SDS011;55834;50.870;4.606;2023-08-06T07:02:54;6.83;;;6.20;;
68821;SDS011;55834;50.870;4.606;2023-08-06T07:05:19;4.73;;;3.43;;
68821;SDS011;55834;50.870;4.606;2023-08-06T07:07:44;5.17;;;2.90;;
68821;SDS011;55834;50.870;4.606;2023-08-06T07:10:10;6.53;;;2.70;;
68821;SDS011;55834;50.870;4.606;2023-08-06T07:12:36;4.70;;;1.90;;
68821;SDS011;55834;50.870;4.606;2023-08-06T07:15:03;4.50;;;2.10;;
68821;SDS011;55834;50.870;4.606;2023-08-06T07:17:30;4.45;;;2.03;;
68821;SDS011;55834;50.870;4.606;2023-08-06T07:19:55;5.30;;;2.10;;
68821;SDS011;55834;50.870;4.606;2023-08-06T07:22:20;3.67;;;2.20;;
68821;SDS011;55834;50.870;4.606;2023-08-06T07:24:46;5.05;;;1.98;;
68821;SDS011;55834;50.870;4.606;2023-08-06T07:27:11;10.05;;;2.33;;
68821;SDS011;55834;50.870;4.606;2023-08-06T07:29:37;11.45;;;3.25;;
68821;SDS011;55834;50.870;4.606;2023-08-06T07:32:02;4.97;;;2.07;;
68821;SDS011;55834;50.870;4.606;2023-08-06T07:34:27;5.57;;;1.85;;
68821;SDS011;55834;50.870;4.606;2023-08-06T07:36:53;3.50;;;1.90;;
68821;SDS011;55834;50.870;4.606;2023-08-06T07:39:18;5.43;;;2.20;;
68821;SDS011;55834;50.870;4.606;2023-08-06T07:41:44;6.45;;;2.13;;
68821;SDS011;55834;50.870;4.606;2023-08-06T07:44:11;7.18;;;1.48;;
68821;SDS011;55834;50.870;4.606;2023-08-06T07:46:36;3.10;;;1.23;;
68821;SDS011;55834;50.870;4.606;2023-08-06T07:49:02;3.25;;;0.82;;
68821;SDS011;55834;50.870;4.606;2023-08-06T07:51:27;4.00;;;1.00;;
68821;SDS011;55834;50.870;4.606;2023-08-06T07:53:53;10.37;;;1.50;;
68821;SDS011;55834;50.870;4.606;2023-08-06T07:56:18;9.68;;;1.63;;
68821;SDS011;55834;50.870;4.606;2023-08-06T07:58:44;9.25;;;1.55;;
68821;SDS011;55834;50.870;4.606;2023-08-06T08:01:09;2.00;;;0.85;;
68821;SDS011;55834;50.870;4.606;2023-08-06T08:03:34;4.00;;;1.02;;
68821;SDS011;55834;50.870;4.606;2023-08-06T08:06:00;5.13;;;1.45;;
68821;SDS011;55834;50.870;4.606;2023-08-06T08:08:25;7.03;;;2.05;;
68821;SDS011;55834;50.870;4.606;2023-08-06T08:10:51;4.78;;;1.10;;
68821;SDS011;55834;50.870;4.606;2023-08-06T08:13:27;5.07;;;0.98;;
68821;SDS011;55834;50.870;4.606;2023-08-06T08:15:56;8.80;;;1.83;;
68821;SDS011;55834;50.870;4.606;2023-08-06T08:18:24;3.17;;;1.10;;
68821;SDS011;55834;50.870;4.606;2023-08-06T08:20:50;3.38;;;1.20;;
68821;SDS011;55834;50.870;4.606;2023-08-06T08:23:16;5.53;;;1.30;;
68821;SDS011;55834;50.870;4.606;2023-08-06T08:25:41;3.88;;;1.45;;
68821;SDS011;55834;50.870;4.606;2023-08-06T08:28:06;2.83;;;1.00;;
68821;SDS011;55834;50.870;4.606;2023-08-06T08:30:32;4.65;;;1.35;;
68821;SDS011;55834;50.870;4.606;2023-08-06T08:32:57;5.97;;;1.70;;
68821;SDS011;55834;50.870;4.606;2023-08-06T08:35:23;4.40;;;1.30;;
68821;SDS011;55834;50.870;4.606;2023-08-06T08:37:48;1.02;;;0.57;;
68821;SDS011;55834;50.870;4.606;2023-08-06T08:40:14;1.75;;;0.75;;
68821;SDS011;55834;50.870;4.606;2023-08-06T08:42:40;2.13;;;0.82;;
68821;SDS011;55834;50.870;4.606;2023-08-06T08:45:06;3.83;;;1.05;;
68821;SDS011;55834;50.870;4.606;2023-08-06T08:47:44;2.42;;;0.80;;
68821;SDS011;55834;50.870;4.606;2023-08-06T08:50:12;2.47;;;1.27;;
68821;SDS011;55834;50.870;4.606;2023-08-06T08:57:31;1.52;;;0.85;;
68821;SDS011;55834;50.870;4.606;2023-08-06T08:59:57;2.33;;;0.77;;
68821;SDS011;55834;50.870;4.606;2023-08-06T09:02:22;3.45;;;1.27;;
68821;SDS011;55834;50.870;4.606;2023-08-06T09:04:53;3.95;;;1.20;;
68821;SDS011;55834;50.870;4.606;2023-08-06T09:07:19;1.42;;;0.82;;
68821;SDS011;55834;50.870;4.606;2023-08-06T09:09:48;1.98;;;0.85;;
68821;SDS011;55834;50.870;4.606;2023-08-06T09:12:15;2.90;;;0.93;;
68821;SDS011;55834;50.870;4.606;2023-08-06T09:14:41;2.38;;;1.27;;
68821;SDS011;55834;50.870;4.606;2023-08-06T09:17:08;3.10;;;0.77;;
68821;SDS011;55834;50.870;4.606;2023-08-06T09:19:35;4.65;;;1.15;;
68821;SDS011;55834;50.870;4.606;2023-08-06T09:22:01;5.15;;;1.38;;
68821;SDS011;55834;50.870;4.606;2023-08-06T09:24:27;2.67;;;0.90;;
68821;SDS011;55834;50.870;4.606;2023-08-06T09:26:52;6.70;;;1.35;;
68821;SDS011;55834;50.870;4.606;2023-08-06T09:29:21;2.20;;;0.68;;
68821;SDS011;55834;50.870;4.606;2023-08-06T09:31:47;7.13;;;1.53;;
68821;SDS011;55834;50.870;4.606;2023-08-06T09:34:23;5.50;;;1.65;;
68821;SDS011;55834;50.870;4.606;2023-08-06T09:36:49;6.78;;;1.42;;
68821;SDS011;55834;50.870;4.606;2023-08-06T09:39:20;3.05;;;0.70;;
68821;SDS011;55834;50.870;4.606;2023-08-06T09:41:47;2.45;;;1.38;;
68821;SDS011;55834;50.870;4.606;2023-08-06T09:46:47;7.55;;;2.15;;
68821;SDS011;55834;50.870;4.606;2023-08-06T09:49:13;5.22;;;1.38;;
68821;SDS011;55834;50.870;4.606;2023-08-06T09:51:38;1.83;;;0.97;;
68821;SDS011;55834;50.870;4.606;2023-08-06T09:54:05;3.40;;;1.38;;
68821;SDS011;55834;50.870;4.606;2023-08-06T09:56:34;4.55;;;1.58;;
68821;SDS011;55834;50.870;4.606;2023-08-06T09:59:20;6.38;;;1.63;;
68821;SDS011;55834;50.870;4.606;2023-08-06T10:01:50;1.65;;;0.98;;
68821;SDS011;55834;50.870;4.606;2023-08-06T10:04:16;4.28;;;1.42;;
68821;SDS011;55834;50.870;4.606;2023-08-06T10:06:42;3.30;;;2.35;;
68821;SDS011;55834;50.870;4.606;2023-08-06T10:09:11;2.38;;;0.70;;
68821;SDS011;55834;50.870;4.606;2023-08-06T10:11:36;4.28;;;1.35;;
68821;SDS011;55834;50.870;4.606;2023-08-06T10:14:05;3.20;;;1.13;;
68821;SDS011;55834;50.870;4.606;2023-08-06T10:16:34;1.60;;;1.17;;
68821;SDS011;55834;50.870;4.606;2023-08-06T10:19:01;3.17;;;1.42;;
68821;SDS011;55834;50.870;4.606;2023-08-06T10:21:30;5.35;;;1.67;;
68821;SDS011;55834;50.870;4.606;2023-08-06T10:26:28;4.32;;;1.02;;
68821;SDS011;55834;50.870;4.606;2023-08-06T10:28:54;2.10;;;1.30;;
68821;SDS011;55834;50.870;4.606;2023-08-06T10:31:33;3.33;;;0.90;;
68821;SDS011;55834;50.870;4.606;2023-08-06T10:34:25;2.88;;;1.20;;
68821;SDS011;55834;50.870;4.606;2023-08-06T10:36:50;7.03;;;1.90;;
68821;SDS011;55834;50.870;4.606;2023-08-06T10:39:19;5.53;;;1.38;;
68821;SDS011;55834;50.870;4.606;2023-08-06T10:41:44;4.90;;;1.60;;
68821;SDS011;55834;50.870;4.606;2023-08-06T10:44:10;8.05;;;1.00;;
68821;SDS011;55834;50.870;4.606;2023-08-06T10:46:36;4.57;;;1.58;;
68821;SDS011;55834;50.870;4.606;2023-08-06T10:49:03;5.75;;;1.08;;
68821;SDS011;55834;50.870;4.606;2023-08-06T10:51:29;6.53;;;1.50;;
68821;SDS011;55834;50.870;4.606;2023-08-06T10:53:55;2.88;;;0.55;;
68821;SDS011;55834;50.870;4.606;2023-08-06T10:56:23;3.90;;;0.88;;
68821;SDS011;55834;50.870;4.606;2023-08-06T10:58:56;3.38;;;0.80;;
68821;SDS011;55834;50.870;4.606;2023-08-06T11:01:22;3.58;;;1.33;;
68821;SDS011;55834;50.870;4.606;2023-08-06T11:03:48;5.75;;;1.00;;
68821;SDS011;55834;50.870;4.606;2023-08-06T11:08:49;4.35;;;1.63;;
68821;SDS011;55834;50.870;4.606;2023-08-06T11:11:16;2.65;;;1.55;;
68821;SDS011;55834;50.870;4.606;2023-08-06T11:13:42;5.07;;;1.00;;
68821;SDS011;55834;50.870;4.606;2023-08-06T11:16:12;2.85;;;1.15;;
68821;SDS011;55834;50.870;4.606;2023-08-06T11:18:39;5.57;;;1.45;;
68821;SDS011;55834;50.870;4.606;2023-08-06T11:21:05;7.25;;;1.40;;
68821;SDS011;55834;50.870;4.606;2023-08-06T11:23:30;2.60;;;1.23;;
68821;SDS011;55834;50.870;4.606;2023-08-06T11:25:56;4.07;;;0.98;;
68821;SDS011;55834;50.870;4.606;2023-08-06T11:28:22;5.35;;;1.30;;
68821;SDS011;55834;50.870;4.606;2023-08-06T11:30:48;7.43;;;2.85;;
68821;SDS011;55834;50.870;4.606;2023-08-06T11:33:14;2.08;;;1.15;;
68821;SDS011;55834;50.870;4.606;2023-08-06T11:35:39;5.33;;;1.90;;
68821;SDS011;55834;50.870;4.606;2023-08-06T11:38:05;2.75;;;0.80;;
68821;SDS011;55834;50.870;4.606;2023-08-06T11:40:32;3.97;;;1.33;;
68821;SDS011;55834;50.870;4.606;2023-08-06T11:42:58;3.60;;;1.00;;
68821;SDS011;55834;50.870;4.606;2023-08-06T11:45:24;1.77;;;0.80;;
68821;SDS011;55834;50.870;4.606;2023-08-06T11:47:50;2.47;;;1.40;;
68821;SDS011;55834;50.870;4.606;2023-08-06T11:50:24;1.92;;;1.02;;
68821;SDS011;55834;50.870;4.606;2023-08-06T11:52:58;3.25;;;1.33;;
68821;SDS011;55834;50.870;4.606;2023-08-06T11:55:25;3.10;;;1.27;;
68821;SDS011;55834;50.870;4.606;2023-08-06T11:57:51;1.98;;;1.00;;
68821;SDS011;55834;50.870;4.606;2023-08-06T12:00:17;3.35;;;0.98;;
68821;SDS011;55834;50.870;4.606;2023-08-06T12:02:45;3.33;;;0.98;;
68821;SDS011;55834;50.870;4.606;2023-08-06T12:07:47;4.30;;;1.13;;
68821;SDS011;55834;50.870;4.606;2023-08-06T12:10:14;3.45;;;0.98;;
68821;SDS011;55834;50.870;4.606;2023-08-06T12:15:07;2.60;;;0.77;;
68821;SDS011;55834;50.870;4.606;2023-08-06T12:17:34;5.43;;;1.30;;
68821;SDS011;55834;50.870;4.606;2023-08-06T12:20:00;2.88;;;1.25;;
68821;SDS011;55834;50.870;4.606;2023-08-06T12:22:26;4.05;;;1.88;;
68821;SDS011;55834;50.870;4.606;2023-08-06T12:24:51;5.43;;;1.98;;
68821;SDS011;55834;50.870;4.606;2023-08-06T12:27:17;3.55;;;0.90;;
68821;SDS011;55834;50.870;4.606;2023-08-06T12:29:46;4.18;;;0.95;;
68821;SDS011;55834;50.870;4.606;2023-08-06T12:32:13;2.97;;;1.02;;
68821;SDS011;55834;50.870;4.606;2023-08-06T12:34:39;2.90;;;1.13;;
68821;SDS011;55834;50.870;4.606;2023-08-06T12:37:06;11.60;;;1.95;;
68821;SDS011;55834;50.870;4.606;2023-08-06T12:39:32;3.75;;;1.48;;
68821;SDS011;55834;50.870;4.606;2023-08-06T12:41:58;4.32;;;1.60;;
68821;SDS011;55834;50.870;4.606;2023-08-06T12:44:27;4.90;;;1.38;;
68821;SDS011;55834;50.870;4.606;2023-08-06T12:46:53;3.00;;;1.15;;
68821;SDS011;55834;50.870;4.606;2023-08-06T12:49:19;6.13;;;1.38;;
68821;SDS011;55834;50.870;4.606;2023-08-06T12:51:48;4.82;;;1.73;;
68821;SDS011;55834;50.870;4.606;2023-08-06T12:54:15;4.57;;;0.93;;
68821;SDS011;55834;50.870;4.606;2023-08-06T12:56:42;3.40;;;1.00;;
68821;SDS011;55834;50.870;4.606;2023-08-06T12:59:08;5.88;;;1.02;;
68821;SDS011;55834;50.870;4.606;2023-08-06T13:01:33;5.30;;;1.55;;
68821;SDS011;55834;50.870;4.606;2023-08-06T13:03:59;4.77;;;1.37;;
68821;SDS011;55834;50.870;4.606;2023-08-06T13:06:25;3.45;;;1.20;;
68821;SDS011;55834;50.870;4.606;2023-08-06T13:08:50;3.87;;;1.20;;
68821;SDS011;55834;50.870;4.606;2023-08-06T13:11:15;4.35;;;0.70;;
68821;SDS011;55834;50.870;4.606;2023-08-06T13:13:41;4.82;;;1.52;;
68821;SDS011;55834;50.870;4.606;2023-08-06T13:16:06;2.57;;;1.43;;
68821;SDS011;55834;50.870;4.606;2023-08-06T13:18:32;6.53;;;1.90;;
68821;SDS011;55834;50.870;4.606;2023-08-06T13:20:57;2.65;;;1.08;;
68821;SDS011;55834;50.870;4.606;2023-08-06T13:23:23;2.17;;;1.00;;
68821;SDS011;55834;50.870;4.606;2023-08-06T13:25:48;6.85;;;1.42;;
68821;SDS011;55834;50.870;4.606;2023-08-06T13:28:14;6.80;;;1.23;;
68821;SDS011;55834;50.870;4.606;2023-08-06T13:30:39;5.40;;;1.25;;
68821;SDS011;55834;50.870;4.606;2023-08-06T13:33:11;5.20;;;1.42;;
68821;SDS011;55834;50.870;4.606;2023-08-06T13:35:36;2.60;;;1.10;;
68821;SDS011;55834;50.870;4.606;2023-08-06T13:38:02;3.45;;;1.23;;
68821;SDS011;55834;50.870;4.606;2023-08-06T13:40:32;2.83;;;0.70;;
68821;SDS011;55834;50.870;4.606;2023-08-06T13:42:58;6.50;;;1.35;;
68821;SDS011;55834;50.870;4.606;2023-08-06T13:45:24;5.93;;;1.35;;
68821;SDS011;55834;50.870;4.606;2023-08-06T13:47:50;2.27;;;0.80;;
68821;SDS011;55834;50.870;4.606;2023-08-06T13:50:15;4.93;;;1.23;;
68821;SDS011;55834;50.870;4.606;2023-08-06T13:52:40;1.85;;;0.75;;
68821;SDS011;55834;50.870;4.606;2023-08-06T13:55:06;3.85;;;1.15;;
68821;SDS011;55834;50.870;4.606;2023-08-06T13:57:32;5.38;;;1.40;;
68821;SDS011;55834;50.870;4.606;2023-08-06T13:59:58;3.80;;;1.42;;
68821;SDS011;55834;50.870;4.606;2023-08-06T14:02:24;3.00;;;1.10;;
68821;SDS011;55834;50.870;4.606;2023-08-06T14:04:50;3.22;;;1.00;;
68821;SDS011;55834;50.870;4.606;2023-08-06T14:07:17;7.20;;;1.15;;
68821;SDS011;55834;50.870;4.606;2023-08-06T14:09:42;1.67;;;0.77;;
68821;SDS011;55834;50.870;4.606;2023-08-06T14:12:09;1.88;;;1.17;;
68821;SDS011;55834;50.870;4.606;2023-08-06T14:14:35;4.45;;;0.63;;
68821;SDS011;55834;50.870;4.606;2023-08-06T14:17:00;4.82;;;1.45;;
68821;SDS011;55834;50.870;4.606;2023-08-06T14:19:26;2.75;;;1.02;;
68821;SDS011;55834;50.870;4.606;2023-08-06T14:21:51;2.33;;;0.82;;
68821;SDS011;55834;50.870;4.606;2023-08-06T14:24:17;4.30;;;1.42;;
68821;SDS011;55834;50.870;4.606;2023-08-06T14:26:43;4.03;;;1.13;;
68821;SDS011;55834;50.870;4.606;2023-08-06T14:29:08;3.35;;;1.08;;
68821;SDS011;55834;50.870;4.606;2023-08-06T14:31:34;3.57;;;1.10;;
68821;SDS011;55834;50.870;4.606;2023-08-06T14:33:59;6.83;;;1.40;;
68821;SDS011;55834;50.870;4.606;2023-08-06T14:36:25;2.05;;;1.13;;
68821;SDS011;55834;50.870;4.606;2023-08-06T14:38:51;4.45;;;1.50;;
68821;SDS011;55834;50.870;4.606;2023-08-06T14:41:16;5.18;;;1.42;;
68821;SDS011;55834;50.870;4.606;2023-08-06T14:43:42;6.00;;;1.30;;
68821;SDS011;55834;50.870;4.606;2023-08-06T14:46:07;6.00;;;1.33;;
68821;SDS011;55834;50.870;4.606;2023-08-06T14:48:33;4.70;;;1.43;;
68821;SDS011;55834;50.870;4.606;2023-08-06T14:50:58;5.63;;;2.15;;
68821;SDS011;55834;50.870;4.606;2023-08-06T14:53:23;8.88;;;2.60;;
68821;SDS011;55834;50.870;4.606;2023-08-06T14:55:49;2.88;;;0.90;;
68821;SDS011;55834;50.870;4.606;2023-08-06T14:58:15;9.57;;;2.95;;
68821;SDS011;55834;50.870;4.606;2023-08-06T15:00:40;8.55;;;1.88;;
68821;SDS011;55834;50.870;4.606;2023-08-06T15:03:06;4.45;;;1.55;;
68821;SDS011;55834;50.870;4.606;2023-08-06T15:05:32;6.70;;;1.38;;
68821;SDS011;55834;50.870;4.606;2023-08-06T15:07:58;6.57;;;2.00;;
68821;SDS011;55834;50.870;4.606;2023-08-06T15:10:23;2.40;;;1.20;;